createdAt,value
2023-05-03T00:04:59.597Z,2.90
2023-05-03T00:10:06.894Z,2.30
2023-05-03T00:15:10.777Z,2.65
2023-05-03T00:20:13.683Z,3.03
2023-05-03T00:25:18.066Z,2.70
2023-05-03T00:30:21.492Z,2.10
2023-05-03T00:35:24.398Z,2.50
2023-05-03T00:40:29.072Z,2.38
2023-05-03T00:45:32.133Z,2.85
2023-05-03T00:50:35.056Z,2.25
2023-05-03T00:55:39.866Z,2.10
2023-05-03T01:00:43.024Z,2.13
2023-05-03T01:05:53.113Z,2.00
2023-05-03T01:11:03.824Z,2.00
2023-05-03T01:16:12.768Z,1.80
2023-05-03T01:21:18.585Z,2.10
2023-05-03T01:26:23.965Z,1.95
2023-05-03T01:31:31.180Z,1.70
2023-05-03T01:36:35.653Z,1.67
2023-05-03T01:41:41.765Z,1.85
2023-05-03T01:46:45.182Z,1.50
2023-05-03T01:51:49.887Z,1.85
2023-05-03T01:56:55.394Z,1.70
2023-05-03T02:01:58.208Z,1.52
2023-05-03T02:07:01.089Z,1.60
2023-05-03T02:12:05.677Z,1.35
2023-05-03T02:17:08.870Z,2.10
2023-05-03T02:22:11.690Z,2.03
2023-05-03T02:27:15.941Z,1.43
2023-05-03T02:32:20.456Z,1.40
2023-05-03T02:37:23.491Z,1.52
2023-05-03T02:42:27.790Z,1.73
2023-05-03T02:47:31.804Z,1.52
2023-05-03T02:52:35.503Z,1.88
2023-05-03T02:57:42.260Z,1.70
2023-05-03T03:02:46.136Z,2.03
2023-05-03T03:07:49.073Z,1.70
2023-05-03T03:12:54.250Z,1.80
2023-05-03T03:18:06.965Z,1.52
2023-05-03T03:23:09.998Z,1.20
2023-05-03T03:28:14.231Z,1.50
2023-05-03T03:33:17.546Z,1.50
2023-05-03T03:38:21.158Z,1.38
2023-05-03T03:43:33.162Z,1.58
2023-05-03T03:48:38.070Z,1.67
2023-05-03T03:53:41.654Z,1.77
2023-05-03T03:58:46.708Z,1.60
2023-05-03T04:03:49.851Z,1.63
2023-05-03T04:08:53.492Z,2.07
2023-05-03T04:13:57.760Z,1.60
2023-05-03T04:19:02.470Z,2.03
2023-05-03T04:24:09.173Z,1.65
2023-05-03T04:29:13.956Z,2.13
2023-05-03T04:34:19.000Z,2.05
2023-05-03T04:39:25.104Z,1.40
2023-05-03T04:44:30.437Z,1.48
2023-05-03T04:49:34.681Z,1.70
2023-05-03T04:54:37.485Z,1.10
2023-05-03T04:59:41.776Z,1.67
2023-05-03T05:04:45.758Z,1.83
2023-05-03T05:09:48.894Z,1.60
2023-05-03T05:14:54.216Z,1.55
2023-05-03T05:19:57.247Z,1.58
2023-05-03T05:25:01.615Z,1.77
2023-05-03T05:30:08.547Z,1.45
2023-05-03T05:35:13.224Z,2.00
2023-05-03T05:40:16.388Z,1.48
2023-05-03T05:45:25.928Z,1.75
2023-05-03T05:50:31.489Z,1.60
2023-05-03T05:55:38.665Z,1.63
2023-05-03T06:00:44.249Z,1.40
2023-05-03T06:05:49.302Z,1.90
2023-05-03T06:10:53.126Z,1.57
2023-05-03T06:15:58.287Z,1.27
2023-05-03T06:21:01.218Z,1.73
2023-05-03T06:26:04.801Z,1.50
2023-05-03T06:31:10.257Z,1.38
2023-05-03T06:36:14.030Z,1.00
2023-05-03T06:41:18.581Z,1.10
2023-05-03T06:46:23.032Z,1.10
2023-05-03T06:51:28.241Z,1.42
2023-05-03T06:56:32.741Z,0.90
2023-05-03T07:01:37.110Z,1.30
2023-05-03T07:06:52.473Z,0.93
2023-05-03T07:11:58.677Z,1.08
2023-05-03T07:17:03.052Z,1.23
2023-05-03T07:22:05.938Z,1.45
2023-05-03T07:27:08.890Z,1.02
2023-05-03T07:32:13.334Z,1.15
2023-05-03T07:37:16.292Z,1.10
2023-05-03T07:42:19.487Z,1.00
2023-05-03T07:47:23.851Z,0.90
2023-05-03T07:52:26.832Z,0.75
2023-05-03T07:57:29.869Z,1.10
2023-05-03T08:02:34.157Z,1.02
2023-05-03T08:07:37.095Z,1.10
2023-05-03T08:12:40.034Z,1.30
2023-05-03T08:17:45.815Z,0.93
2023-05-03T08:22:48.761Z,1.00
2023-05-03T08:27:51.778Z,1.02
2023-05-03T08:32:56.354Z,1.55
2023-05-03T08:37:59.282Z,1.50
2023-05-03T08:43:08.705Z,1.30
2023-05-03T08:48:13.993Z,1.10
2023-05-03T08:53:16.930Z,1.25
2023-05-03T08:58:19.786Z,1.30
2023-05-03T09:03:24.216Z,1.20
2023-05-03T09:08:28.095Z,1.20
2023-05-03T09:13:31.985Z,1.10
2023-05-03T09:18:36.314Z,1.23
2023-05-03T09:23:39.136Z,1.20
2023-05-03T09:28:42.901Z,1.10
2023-05-03T09:33:47.252Z,1.65
2023-05-03T09:38:50.991Z,1.85
2023-05-03T09:43:55.871Z,1.60
2023-05-03T09:49:01.196Z,1.97
2023-05-03T09:54:04.586Z,1.73
2023-05-03T09:59:07.658Z,2.07
2023-05-03T10:04:12.216Z,1.77
2023-05-03T10:09:20.882Z,1.90
2023-05-03T10:14:24.351Z,2.05
2023-05-03T10:19:32.368Z,1.58
2023-05-03T10:24:36.175Z,1.65
2023-05-03T10:29:49.803Z,1.50
2023-05-03T10:34:58.877Z,1.73
2023-05-03T10:40:10.239Z,1.52
2023-05-03T10:45:22.982Z,1.58
2023-05-03T10:50:28.568Z,2.30
2023-05-03T10:55:31.403Z,2.20
2023-05-03T11:00:39.088Z,2.13
2023-05-03T11:05:43.480Z,1.67
2023-05-03T11:10:47.039Z,1.50
2023-05-03T11:15:49.930Z,2.30
2023-05-03T11:20:54.576Z,1.65
2023-05-03T11:25:58.092Z,1.50
2023-05-03T11:31:02.122Z,2.15
2023-05-03T11:36:08.333Z,1.80
2023-05-03T11:41:14.255Z,1.90
2023-05-03T11:46:19.424Z,1.80
2023-05-03T11:51:24.917Z,1.90
2023-05-03T11:56:27.901Z,1.98
2023-05-03T12:01:31.128Z,1.83
2023-05-03T12:06:36.503Z,2.00
2023-05-03T12:11:45.081Z,1.85
2023-05-03T12:16:50.925Z,1.67
2023-05-03T12:22:18.200Z,1.50
2023-05-03T12:27:19.513Z,1.60
2023-05-03T12:32:23.254Z,1.70
2023-05-03T12:37:28.227Z,1.63
2023-05-03T12:42:33.829Z,2.30
2023-05-03T12:47:38.142Z,1.73
2023-05-03T12:52:45.429Z,1.80
2023-05-03T12:58:05.967Z,1.83
2023-05-03T13:03:20.614Z,2.50
2023-05-03T13:08:33.514Z,1.88
2023-05-03T13:13:37.926Z,2.40
2023-05-03T13:18:42.736Z,2.13
2023-05-03T13:23:47.986Z,1.90
2023-05-03T13:28:51.264Z,2.20
2023-05-03T13:33:55.173Z,2.35
2023-05-03T13:38:59.746Z,1.70
2023-05-03T13:44:02.709Z,2.60
2023-05-03T13:49:07.362Z,1.88
2023-05-03T13:54:11.707Z,2.20
2023-05-03T13:59:15.054Z,2.20
2023-05-03T14:04:18.030Z,2.00
2023-05-03T14:09:22.357Z,2.40
2023-05-03T14:14:27.963Z,2.58
2023-05-03T14:19:30.943Z,2.57
2023-05-03T14:24:35.208Z,1.90
2023-05-03T14:29:38.017Z,2.17
2023-05-03T14:34:40.928Z,2.10
2023-05-03T14:39:45.357Z,2.70
2023-05-03T14:44:48.321Z,2.38
2023-05-03T14:49:52.122Z,2.08
2023-05-03T14:54:56.484Z,2.30
2023-05-03T14:59:59.472Z,2.10
2023-05-03T15:05:03.614Z,2.75
2023-05-03T15:10:10.099Z,2.50
2023-05-03T15:15:13.083Z,2.43
2023-05-03T15:20:16.703Z,2.58
2023-05-03T15:25:21.033Z,2.40
2023-05-03T15:30:23.863Z,2.45
2023-05-03T15:35:27.249Z,2.20
2023-05-03T15:40:32.074Z,2.30
2023-05-03T15:45:34.931Z,2.38
2023-05-03T15:50:38.203Z,2.80
2023-05-03T15:55:42.666Z,2.67
2023-05-03T16:00:45.564Z,2.47
2023-05-03T16:05:48.685Z,2.77
2023-05-03T16:10:52.991Z,3.15
2023-05-03T16:15:57.001Z,2.60
2023-05-03T16:21:03.350Z,2.53
2023-05-03T16:26:14.487Z,2.83
2023-05-03T16:31:17.839Z,3.27
2023-05-03T16:36:20.815Z,2.78
2023-05-03T16:41:25.339Z,3.28
2023-05-03T16:46:28.273Z,3.22
2023-05-03T16:51:31.653Z,2.90
2023-05-03T16:56:36.009Z,3.03
2023-05-03T17:01:39.297Z,2.53
2023-05-03T17:06:42.293Z,2.80
2023-05-03T17:11:47.139Z,3.22
2023-05-03T17:16:51.137Z,3.45
2023-05-03T17:21:53.995Z,2.97
2023-05-03T17:26:58.254Z,3.10
2023-05-03T17:32:01.420Z,3.27
2023-05-03T17:37:05.557Z,2.92
2023-05-03T17:42:10.126Z,2.83
2023-05-03T17:47:13.038Z,3.40
2023-05-03T17:52:16.715Z,3.00
2023-05-03T17:57:21.593Z,3.17
2023-05-03T18:02:24.549Z,2.90
2023-05-03T18:07:27.939Z,2.60
2023-05-03T18:12:32.491Z,2.63
2023-05-03T18:17:35.541Z,2.90
2023-05-03T18:22:38.473Z,2.83
2023-05-03T18:27:42.673Z,3.05
2023-05-03T18:32:45.496Z,3.47
2023-05-03T18:37:48.429Z,3.13
2023-05-03T18:42:52.701Z,2.88
2023-05-03T18:47:56.736Z,2.53
2023-05-03T18:52:59.586Z,3.22
2023-05-03T18:58:04.646Z,2.97
2023-05-03T19:03:09.060Z,3.20
2023-05-03T19:08:12.234Z,3.43
2023-05-03T19:13:16.990Z,3.05
2023-05-03T19:18:19.848Z,2.92
2023-05-03T19:23:23.367Z,3.63
2023-05-03T19:28:27.633Z,4.32
2023-05-03T19:33:30.484Z,4.05
2023-05-03T19:38:33.761Z,3.63
2023-05-03T19:43:38.054Z,3.97
2023-05-03T19:48:41.019Z,3.50
2023-05-03T19:53:44.435Z,3.40
2023-05-03T19:58:50.695Z,3.30
2023-05-03T20:03:54.974Z,3.97
2023-05-03T20:08:58.088Z,3.45
2023-05-03T20:14:02.302Z,3.70
2023-05-03T20:19:05.261Z,3.80
2023-05-03T20:24:10.865Z,3.65
2023-05-03T20:29:15.635Z,3.08
2023-05-03T20:34:18.496Z,3.78
2023-05-03T20:39:21.436Z,3.92
2023-05-03T20:44:25.722Z,3.30
2023-05-03T20:49:28.575Z,3.60
2023-05-03T20:54:31.534Z,3.57
2023-05-03T20:59:36.077Z,3.38
2023-05-03T21:04:39.005Z,3.50
2023-05-03T21:09:41.789Z,3.53
2023-05-03T21:14:46.036Z,3.70
2023-05-03T21:19:48.918Z,3.88
2023-05-03T21:24:52.184Z,3.58
2023-05-03T21:29:56.468Z,3.30
2023-05-03T21:34:59.346Z,4.10
2023-05-03T21:40:03.019Z,4.00
2023-05-03T21:45:09.363Z,3.78
2023-05-03T21:50:12.974Z,3.97
2023-05-03T21:55:15.864Z,3.85
2023-05-03T22:00:20.895Z,4.33
2023-05-03T22:05:24.413Z,4.07
2023-05-03T22:10:27.408Z,4.20
2023-05-03T22:15:33.503Z,3.73
2023-05-03T22:20:36.374Z,3.83
2023-05-03T22:25:39.202Z,3.63
2023-05-03T22:30:43.511Z,4.22
2023-05-03T22:35:46.371Z,3.57
2023-05-03T22:40:49.309Z,4.57
2023-05-03T22:45:53.712Z,5.18
2023-05-03T22:50:56.601Z,4.53
2023-05-03T22:56:00.819Z,4.03
2023-05-03T23:01:05.643Z,4.70
2023-05-03T23:06:08.678Z,5.60
2023-05-03T23:11:11.836Z,4.55
2023-05-03T23:16:16.067Z,4.60
2023-05-03T23:21:19.314Z,4.50
2023-05-03T23:26:22.293Z,5.07
2023-05-03T23:31:28.060Z,4.68
2023-05-03T23:36:34.150Z,5.68
2023-05-03T23:41:37.068Z,5.32
2023-05-03T23:46:41.306Z,5.20
2023-05-03T23:51:44.208Z,5.00
2023-05-03T23:56:47.115Z,5.45
